Time;durP1;ratioP1;P1;durP2;ratioP2;P2;SDS_P1;SDS_P2;PMS_P1;PMS_P2;Temp;Humidity;BMP_temperature;BMP_pressure;BME280_temperature;BME280_humidity;BME280_pressure;Samples;Min_cycle;Max_cycle;Signal;HPM_P1;HPM_P2
2020/12/31 00:01:27;;;;;;;10.90;8.88;;;;;;;6.43;81.82;97418.22;1747261;82;21011;-74
2020/12/31 00:03:54;;;;;;;10.15;8.80;;;;;;;6.37;81.79;97403.51;1774388;80;21025;-74
2020/12/31 00:06:21;;;;;;;14.53;11.57;;;;;;;6.34;81.78;97409.05;1747097;82;20928;-74
2020/12/31 00:08:50;;;;;;;7.42;5.97;;;;;;;6.29;81.92;97420.48;1774596;80;22667;-74
2020/12/31 00:11:20;;;;;;;9.95;7.50;;;;;;;6.25;82.15;97427.84;1725490;83;21487;-75
2020/12/31 00:13:48;;;;;;;9.38;7.60;;;;;;;6.20;82.64;97430.46;1747175;82;20944;-74
2020/12/31 00:16:16;;;;;;;7.95;7.15;;;;;;;6.16;83.21;97428.45;1774406;80;20970;-74
2020/12/31 00:18:44;;;;;;;8.50;7.47;;;;;;;6.15;83.45;97439.61;1774585;80;20924;-75
2020/12/31 00:21:11;;;;;;;6.50;5.87;;;;;;;6.14;83.37;97445.89;1774485;80;22027;-74
2020/12/31 00:23:39;;;;;;;8.05;7.10;;;;;;;6.14;83.42;97458.38;1747292;82;21361;-74
2020/12/31 00:26:07;;;;;;;8.93;7.12;;;;;;;6.14;83.45;97453.89;1774401;80;20960;-74
2020/12/31 00:28:34;;;;;;;8.83;7.92;;;;;;;6.12;83.45;97450.48;1747167;82;21027;-74
2020/12/31 00:31:02;;;;;;;18.37;10.43;;;;;;;6.14;83.42;97453.89;1774577;80;21341;-74
2020/12/31 00:33:29;;;;;;;14.23;9.65;;;;;;;6.14;83.30;97443.22;1747212;82;21826;-74
2020/12/31 00:35:57;;;;;;;13.00;9.18;;;;;;;6.14;83.19;97449.89;1774295;80;21007;-73
2020/12/31 00:38:25;;;;;;;15.20;9.45;;;;;;;6.14;83.08;97460.55;1747269;82;20991;-74
2020/12/31 00:40:52;;;;;;;10.15;6.78;;;;;;;6.14;83.01;97469.05;1774373;80;20960;-73
2020/12/31 00:43:22;;;;;;;9.33;6.28;;;;;;;6.11;82.86;97464.75;1747167;82;20935;-74
2020/12/31 00:45:50;;;;;;;8.20;5.40;;;;;;;6.09;82.75;97460.50;1772794;80;22076;-72
2020/12/31 00:48:18;;;;;;;6.97;4.53;;;;;;;6.08;82.61;97469.45;1747159;82;20979;-74
2020/12/31 00:50:45;;;;;;;6.12;4.15;;;;;;;6.07;82.49;97462.39;1769376;80;20987;-74
2020/12/31 00:53:13;;;;;;;5.28;3.98;;;;;;;6.07;82.41;97467.27;1710564;83;21412;-74
2020/12/31 00:55:42;;;;;;;5.58;3.87;;;;;;;6.07;82.45;97469.94;1747395;82;20944;-74
2020/12/31 00:58:11;;;;;;;2.80;2.40;;;;;;;6.06;82.46;97480.20;1769500;81;21205;-73
2020/12/31 01:00:39;;;;;;;4.15;3.27;;;;;;;6.06;82.44;97488.20;1747233;82;20900;-74
2020/12/31 01:03:08;;;;;;;6.28;2.80;;;;;;;6.05;82.40;97486.48;1769488;81;21432;-74
2020/12/31 01:05:36;;;;;;;3.60;3.05;;;;;;;6.05;82.39;97483.81;1747267;82;20940;-74
2020/12/31 01:08:04;;;;;;;4.12;2.35;;;;;;;6.05;82.40;97487.81;1773477;80;21504;-73
2020/12/31 01:10:31;;;;;;;3.33;2.42;;;;;;;6.03;82.51;97495.07;1769399;81;21757;-73
2020/12/31 01:12:59;;;;;;;4.15;2.58;;;;;;;6.03;82.57;97501.73;1747313;82;20934;-74
2020/12/31 01:15:27;;;;;;;3.70;2.45;;;;;;;6.04;82.58;97497.25;1769371;81;21499;-73
2020/12/31 01:17:55;;;;;;;2.98;2.25;;;;;;;6.02;82.53;97498.68;1747276;82;21027;-73
2020/12/31 01:20:22;;;;;;;4.05;2.77;;;;;;;6.03;82.61;97502.22;1769394;81;20932;-73
2020/12/31 01:22:52;;;;;;;4.78;3.35;;;;;;;6.03;82.63;97500.89;1747341;82;21211;-73
2020/12/31 01:25:20;;;;;;;3.62;2.90;;;;;;;6.02;82.79;97504.02;1769309;81;20935;-74
2020/12/31 01:27:47;;;;;;;2.98;2.40;;;;;;;6.02;82.76;97506.67;1747348;82;21015;-73
2020/12/31 01:30:15;;;;;;;3.58;3.08;;;;;;;6.02;82.87;97510.67;1769398;81;21935;-73
2020/12/31 01:32:42;;;;;;;7.53;4.92;;;;;;;6.04;82.91;97513.24;1747291;82;20916;-74
2020/12/31 01:35:09;;;;;;;7.50;6.62;;;;;;;6.03;83.09;97520.39;1769395;81;21009;-74
2020/12/31 01:37:37;;;;;;;9.63;8.73;;;;;;;6.02;83.36;97537.33;1747332;82;20979;-73
2020/12/31 01:40:05;;;;;;;9.35;7.53;;;;;;;6.02;83.39;97532.00;1769409;81;21472;-74
2020/12/31 01:42:32;;;;;;;7.58;6.50;;;;;;;6.02;83.66;97528.49;1769368;81;20908;-74
2020/12/31 01:45:02;;;;;;;8.23;6.75;;;;;;;6.00;84.03;97523.26;1769410;81;20928;-73
2020/12/31 01:47:30;;;;;;;7.58;6.42;;;;;;;5.99;84.21;97517.54;1746948;82;21813;-74
2020/12/31 01:49:57;;;;;;;7.10;6.40;;;;;;;5.98;84.32;97531.84;1774448;80;20959;-75
2020/12/31 01:52:25;;;;;;;8.28;6.62;;;;;;;5.97;84.35;97534.12;1747401;82;21448;-75
2020/12/31 01:54:52;;;;;;;7.58;6.85;;;;;;;5.96;84.28;97529.73;1774518;80;20927;-75
2020/12/31 01:57:20;;;;;;;9.85;7.75;;;;;;;5.96;84.27;97523.06;1774523;80;20888;-74
2020/12/31 01:59:49;;;;;;;8.38;7.45;;;;;;;5.94;84.27;97526.28;1747440;82;22283;-74
2020/12/31 02:02:17;;;;;;;8.53;7.80;;;;;;;5.94;84.32;97537.83;1774489;80;20944;-73
2020/12/31 02:04:44;;;;;;;8.15;7.35;;;;;;;5.92;84.36;97546.37;1747242;82;21378;-73
2020/12/31 02:07:12;;;;;;;8.80;7.87;;;;;;;5.90;84.37;97543.45;1774537;80;21427;-74
2020/12/31 02:09:40;;;;;;;9.30;8.38;;;;;;;5.90;84.35;97543.45;1747327;82;20916;-74
2020/12/31 02:12:08;;;;;;;9.75;8.75;;;;;;;5.90;84.38;97543.45;1778635;80;21807;-74
2020/12/31 02:14:36;;;;;;;9.53;8.63;;;;;;;5.89;84.39;97551.05;1747296;82;21458;-74
2020/12/31 02:17:04;;;;;;;9.48;8.68;;;;;;;5.88;84.40;97549.33;1752071;80;21618;-74
2020/12/31 02:19:33;;;;;;;10.95;9.93;;;;;;;5.88;84.36;97545.33;1747292;82;20920;-73
2020/12/31 02:22:02;;;;;;;9.85;8.88;;;;;;;5.86;84.35;97555.25;1774505;80;20932;-73
2020/12/31 02:24:30;;;;;;;10.10;9.15;;;;;;;5.87;84.36;97550.31;1747281;82;21817;-74
2020/12/31 02:26:57;;;;;;;10.25;9.23;;;;;;;5.87;84.48;97543.64;1774436;80;21007;-74
2020/12/31 02:29:25;;;;;;;10.55;9.55;;;;;;;5.88;84.45;97546.67;1747302;82;21046;-74
2020/12/31 02:31:52;;;;;;;10.50;9.50;;;;;;;5.88;84.51;97548.00;1774487;80;21135;-74
2020/12/31 02:34:20;;;;;;;9.35;8.45;;;;;;;5.88;84.59;97543.55;1747273;82;20924;-73
2020/12/31 02:36:47;;;;;;;10.25;9.25;;;;;;;5.90;84.54;97548.78;1774524;80;22111;-73
2020/12/31 02:39:15;;;;;;;10.53;9.45;;;;;;;5.92;84.54;97552.19;1747195;82;20987;-73
2020/12/31 02:41:42;;;;;;;9.85;8.95;;;;;;;5.92;84.56;97552.19;1774505;80;20936;-73
2020/12/31 02:44:10;;;;;;;9.38;8.35;;;;;;;5.93;84.56;97560.09;1747268;82;20936;-73
2020/12/31 02:46:37;;;;;;;9.73;8.83;;;;;;;5.93;84.50;97559.25;1774363;79;20924;-74
2020/12/31 02:49:05;;;;;;;10.75;9.65;;;;;;;5.94;84.37;97561.81;1774446;80;21183;-73
2020/12/31 02:51:34;;;;;;;9.65;8.75;;;;;;;5.95;84.28;97561.33;1774491;80;20939;-73
2020/12/31 02:54:03;;;;;;;10.20;9.20;;;;;;;5.93;84.20;97562.76;1747236;82;20927;-73
2020/12/31 02:56:30;;;;;;;10.50;9.40;;;;;;;5.92;84.23;97562.85;1774505;80;21515;-73
2020/12/31 02:58:58;;;;;;;9.45;8.55;;;;;;;5.93;84.21;97561.91;1747399;82;21409;-73
2020/12/31 03:01:26;;;;;;;8.85;8.13;;;;;;;5.93;84.06;97560.58;1774476;80;21192;-73
2020/12/31 03:03:53;;;;;;;9.90;8.90;;;;;;;5.94;83.94;97560.94;1747193;82;20948;-73
2020/12/31 03:06:21;;;;;;;10.25;9.23;;;;;;;5.94;83.81;97560.94;1774553;80;21460;-73
2020/12/31 03:08:48;;;;;;;8.83;8.05;;;;;;;5.92;83.65;97564.19;1747352;82;21432;-73
2020/12/31 03:11:22;;;;;;;10.38;9.18;;;;;;;5.91;83.45;97558.01;1774460;80;21007;-73
2020/12/31 03:13:50;;;;;;;9.63;8.73;;;;;;;5.90;83.27;97555.44;1747348;82;21434;-73
2020/12/31 03:16:21;;;;;;;10.53;9.00;;;;;;;5.91;83.14;97558.01;1774427;80;20932;-73
2020/12/31 03:18:48;;;;;;;10.03;9.03;;;;;;;5.91;82.96;97553.13;1747248;82;21448;-73
2020/12/31 03:21:17;;;;;;;11.80;10.05;;;;;;;5.88;82.97;97561.33;1774473;80;20991;-74
2020/12/31 03:23:44;;;;;;;10.88;9.73;;;;;;;5.85;82.96;97561.52;1747394;82;21349;-73
2020/12/31 03:26:12;;;;;;;9.85;8.80;;;;;;;5.84;82.97;97577.15;1774498;80;22341;-73
2020/12/31 03:28:40;;;;;;;11.48;10.10;;;;;;;5.83;83.09;97570.09;1747219;82;20908;-73
2020/12/31 03:31:07;;;;;;;10.25;9.28;;;;;;;5.81;83.21;97570.68;1774529;80;21003;-73
2020/12/31 03:33:34;;;;;;;10.98;9.98;;;;;;;5.81;83.33;97568.86;1747324;82;20913;-73
2020/12/31 03:36:02;;;;;;;11.28;10.18;;;;;;;5.78;83.26;97568.56;1774366;80;20915;-72
2020/12/31 03:38:29;;;;;;;10.72;9.63;;;;;;;5.77;83.16;97569.54;1747365;82;21416;-73
2020/12/31 03:40:57;;;;;;;11.95;9.90;;;;;;;5.77;83.16;97566.88;1774488;80;20948;-73
2020/12/31 03:43:24;;;;;;;11.57;10.48;;;;;;;5.77;83.19;97572.20;1747188;82;20944;-73
2020/12/31 03:45:51;;;;;;;11.60;10.50;;;;;;;5.77;83.21;97570.88;1774426;80;20928;-73
2020/12/31 03:48:18;;;;;;;11.05;9.95;;;;;;;5.76;83.21;97569.16;1747262;81;20972;-73
2020/12/31 03:50:46;;;;;;;10.90;9.90;;;;;;;5.77;83.21;97576.20;1774458;80;22669;-74
2020/12/31 03:53:15;;;;;;;11.95;10.78;;;;;;;5.77;83.25;97576.20;1747199;82;21043;-74
2020/12/31 03:55:42;;;;;;;11.93;10.80;;;;;;;5.77;83.18;97570.88;1774474;80;20892;-74
2020/12/31 03:58:10;;;;;;;11.38;9.95;;;;;;;5.78;83.25;97574.38;1747166;82;21342;-74
2020/12/31 04:00:38;;;;;;;13.30;11.78;;;;;;;5.79;83.27;97573.44;1774516;80;20979;-73
2020/12/31 04:03:06;;;;;;;14.30;12.78;;;;;;;5.78;83.27;97574.38;1747313;82;22278;-73
2020/12/31 04:05:34;;;;;;;15.15;13.70;;;;;;;5.76;83.23;97569.16;1774304;80;20943;-73
2020/12/31 04:08:01;;;;;;;14.18;12.78;;;;;;;5.76;83.09;97565.16;1747246;82;20930;-73
2020/12/31 04:10:29;;;;;;;16.32;14.73;;;;;;;5.75;82.98;97560.77;1774429;80;20920;-74
2020/12/31 04:12:57;;;;;;;15.98;14.33;;;;;;;5.75;83.02;97560.77;1747366;82;21436;-74
2020/12/31 04:15:24;;;;;;;15.38;13.75;;;;;;;5.75;83.05;97561.25;1774422;80;22263;-74
2020/12/31 04:17:52;;;;;;;14.58;13.05;;;;;;;5.75;83.12;97567.42;1747282;82;20900;-75
2020/12/31 04:20:19;;;;;;;14.83;13.32;;;;;;;5.73;83.15;97565.34;1774456;80;20968;-73
2020/12/31 04:22:46;;;;;;;14.90;13.15;;;;;;;5.73;83.13;97564.50;1747186;82;21018;-74
2020/12/31 04:25:15;;;;;;;15.48;14.03;;;;;;;5.73;83.16;97562.68;1774558;80;20979;-73
2020/12/31 04:27:42;;;;;;;14.20;12.80;;;;;;;5.74;83.32;97562.22;1747461;82;21893;-74
2020/12/31 04:30:10;;;;;;;14.63;13.22;;;;;;;5.74;83.38;97551.57;1774532;80;20997;-73
2020/12/31 04:32:37;;;;;;;14.03;12.65;;;;;;;5.75;83.34;97550.59;1747325;82;21003;-75
2020/12/31 04:35:05;;;;;;;18.30;14.53;;;;;;;5.74;83.36;97554.23;1774639;80;21579;-73
2020/12/31 04:37:32;;;;;;;14.55;13.15;;;;;;;5.74;83.26;97565.73;1747499;82;20876;-73
2020/12/31 04:39:59;;;;;;;15.23;13.80;;;;;;;5.75;83.08;97557.25;1774660;80;22312;-74
2020/12/31 04:42:36;;;;;;;16.45;14.75;;;;;;;5.74;83.01;97563.07;1747445;82;20948;-74
2020/12/31 04:45:05;;;;;;;18.65;15.28;;;;;;;5.72;83.03;97559.66;1774711;80;21314;-74
2020/12/31 04:47:44;;;;;;;16.20;14.28;;;;;;;5.70;83.10;97560.20;1747262;81;20896;-73
2020/12/31 04:50:12;;;;;;;17.62;15.60;;;;;;;5.69;83.18;97566.52;1772243;81;20964;-73
2020/12/31 04:52:41;;;;;;;18.25;15.48;;;;;;;5.69;83.25;97566.97;1747304;82;21457;-73
2020/12/31 04:55:10;;;;;;;17.37;15.35;;;;;;;5.66;83.28;97562.70;1771981;81;20982;-73
2020/12/31 04:57:39;;;;;;;17.17;15.00;;;;;;;5.68;83.33;97566.12;1747416;82;21007;-73
2020/12/31 05:00:09;;;;;;;19.67;15.30;;;;;;;5.67;83.33;97565.73;1772078;81;21076;-73
2020/12/31 05:02:37;;;;;;;17.37;14.43;;;;;;;5.66;83.31;97562.70;1747343;82;20991;-73
2020/12/31 05:05:04;;;;;;;17.37;15.10;;;;;;;5.65;83.35;97567.64;1772042;80;21623;-73
2020/12/31 05:07:33;;;;;;;16.02;14.33;;;;;;;5.64;83.29;97569.91;1747153;82;20940;-73
2020/12/31 05:10:10;;;;;;;19.32;15.10;;;;;;;5.64;83.31;97575.24;1772172;80;20916;-73
2020/12/31 05:12:38;;;;;;;15.63;14.03;;;;;;;5.64;83.26;97581.06;1747205;82;20995;-73
2020/12/31 05:15:06;;;;;;;17.07;15.08;;;;;;;5.63;83.27;97584.20;1772074;81;20972;-73
2020/12/31 05:17:33;;;;;;;18.52;14.55;;;;;;;5.61;83.41;97596.30;1747296;82;21805;-73
2020/12/31 05:20:14;;;;;;;16.15;14.55;;;;;;;5.62;83.49;97595.80;1771984;80;20948;-72
2020/12/31 05:22:42;;;;;;;15.75;14.00;;;;;;;5.60;83.51;97602.56;1747337;82;20956;-73
2020/12/31 05:25:10;;;;;;;17.17;14.95;;;;;;;5.62;83.53;97603.80;1771914;81;20979;-73
2020/12/31 05:27:38;;;;;;;16.07;14.45;;;;;;;5.62;83.47;97607.80;1747292;82;21580;-72
2020/12/31 05:30:09;;;;;;;20.12;15.55;;;;;;;5.63;83.45;97608.19;1771938;81;22509;-73
2020/12/31 05:32:39;;;;;;;17.35;15.55;;;;;;;5.63;83.41;97608.19;1747282;82;20952;-73
2020/12/31 05:35:16;;;;;;;17.62;15.83;;;;;;;5.62;83.33;97609.13;1772120;81;21445;-73
2020/12/31 05:37:44;;;;;;;17.32;15.58;;;;;;;5.62;83.26;97605.13;1747353;82;21350;-73
2020/12/31 05:40:13;;;;;;;17.67;15.88;;;;;;;5.61;83.34;97607.41;1772007;81;21380;-74
2020/12/31 05:42:43;;;;;;;19.17;17.10;;;;;;;5.59;83.47;97610.64;1747392;82;21810;-74
2020/12/31 05:45:15;;;;;;;20.25;18.07;;;;;;;5.57;83.49;97605.90;1771775;81;20943;-74
2020/12/31 05:47:52;;;;;;;20.20;18.02;;;;;;;5.57;83.63;97612.56;1747407;81;21453;-74
2020/12/31 05:50:29;;;;;;;20.27;18.25;;;;;;;5.56;83.65;97620.16;1774607;80;21421;-74
2020/12/31 05:52:56;;;;;;;20.65;18.45;;;;;;;5.58;83.72;97616.91;1747386;82;20992;-74
2020/12/31 05:55:26;;;;;;;22.25;19.17;;;;;;;5.58;83.71;97631.56;1774584;80;21801;-74
2020/12/31 05:57:55;;;;;;;22.62;19.27;;;;;;;5.58;83.72;97634.23;1747398;82;20948;-74
2020/12/31 06:00:26;;;;;;;19.52;17.52;;;;;;;5.58;83.72;97636.89;1774460;80;20896;-74
2020/12/31 06:02:59;;;;;;;19.75;17.77;;;;;;;5.58;83.64;97639.55;1747314;82;20900;-74
2020/12/31 06:05:28;;;;;;;21.00;18.80;;;;;;;5.58;83.60;97637.77;1774726;80;21014;-74
2020/12/31 06:07:58;;;;;;;22.45;19.20;;;;;;;5.58;83.61;97632.90;1747394;82;22267;-73
2020/12/31 06:10:32;;;;;;;20.85;18.10;;;;;;;5.59;83.73;97639.95;1774491;80;21018;-73
2020/12/31 06:13:05;;;;;;;27.15;20.80;;;;;;;5.59;83.85;97630.63;1747334;82;20897;-74
2020/12/31 06:15:34;;;;;;;24.82;21.42;;;;;;;5.58;83.80;97635.56;1774440;80;21488;-74
2020/12/31 06:18:06;;;;;;;20.45;18.02;;;;;;;5.59;83.79;97639.95;1747459;82;20881;-73
2020/12/31 06:20:37;;;;;;;26.33;21.15;;;;;;;5.58;83.66;97634.23;1774576;80;21353;-73
2020/12/31 06:23:08;;;;;;;27.17;22.17;;;;;;;5.59;83.67;97630.63;1747117;82;21043;-74
2020/12/31 06:25:42;;;;;;;29.48;23.35;;;;;;;5.59;83.73;97636.80;1774632;80;20991;-74
2020/12/31 06:28:17;;;;;;;30.10;22.52;;;;;;;5.59;83.69;97631.95;1747198;82;20920;-74
2020/12/31 06:30:54;;;;;;;24.63;21.73;;;;;;;5.59;83.65;97638.13;1774600;80;20983;-74
2020/12/31 06:33:34;;;;;;;29.32;24.15;;;;;;;5.58;83.62;97623.58;1747411;82;22294;-73
2020/12/31 06:36:03;;;;;;;35.35;26.62;;;;;;;5.58;83.61;97628.45;1774444;80;20928;-74
2020/12/31 06:38:35;;;;;;;36.75;27.07;;;;;;;5.59;83.57;97627.96;1747332;82;20936;-74
2020/12/31 06:41:05;;;;;;;39.60;28.00;;;;;;;5.59;83.62;97627.96;1778518;80;20948;-74
2020/12/31 06:43:38;;;;;;;36.63;26.07;;;;;;;5.57;83.70;97625.88;1747260;82;20928;-75
2020/12/31 06:46:16;;;;;;;37.88;24.65;;;;;;;5.56;83.83;97623.67;1774513;80;22219;-79
2020/12/31 06:48:52;;;;;;;25.88;22.95;;;;;;;5.56;83.88;97625.00;1747374;81;20976;-71
2020/12/31 06:51:32;;;;;;;26.45;21.27;;;;;;;5.59;83.92;97623.48;1837107;78;28188;-71
2020/12/31 06:54:02;;;;;;;27.90;22.07;;;;;;;5.57;83.98;97628.54;1809646;79;21393;-71
2020/12/31 06:56:47;;;;;;;28.52;23.55;;;;;;;5.57;84.02;97631.20;1809543;79;21808;-71
2020/12/31 06:59:34;;;;;;;30.68;24.60;;;;;;;5.56;84.03;97632.99;1809547;79;20924;-77
2020/12/31 07:02:16;;;;;;;28.98;22.77;;;;;;;5.56;84.05;97630.81;1809629;79;20999;-69
2020/12/31 07:04:48;;;;;;;27.85;22.27;;;;;;;5.55;84.02;97633.09;1809615;79;20917;-72
2020/12/31 07:07:24;;;;;;;26.05;22.45;;;;;;;5.56;83.99;97633.48;1809601;79;21326;-72
2020/12/31 07:10:00;;;;;;;28.17;20.08;;;;;;;5.55;84.04;97626.42;1809764;79;21808;-70
2020/12/31 07:12:37;;;;;;;21.93;19.42;;;;;;;5.55;84.20;97628.63;1809500;79;20920;-70
2020/12/31 07:15:09;;;;;;;23.83;19.92;;;;;;;5.55;84.25;97634.41;1809589;79;20877;-72
2020/12/31 07:17:45;;;;;;;23.07;18.50;;;;;;;5.54;84.14;97635.39;1809631;79;21350;-71
2020/12/31 07:20:16;;;;;;;;;;;;;;;5.53;84.12;97629.66;1812240;79;20968;-70
2020/12/31 07:22:46;;;;;;;19.85;17.17;;;;;;;5.51;84.16;97624.44;1809686;79;22296;-72
2020/12/31 07:25:18;;;;;;;22.02;19.20;;;;;;;5.50;84.26;97625.41;1778670;79;21343;-72
2020/12/31 07:27:50;;;;;;;24.67;20.85;;;;;;;5.48;84.29;97623.29;1809551;79;20932;-74
2020/12/31 07:30:21;;;;;;;27.93;21.30;;;;;;;5.48;84.41;97629.10;1809487;79;20912;-72
2020/12/31 07:32:57;;;;;;;22.62;19.70;;;;;;;5.48;84.47;97623.77;1809687;79;20999;-74
2020/12/31 07:35:43;;;;;;;23.95;20.60;;;;;;;5.46;84.51;97621.69;1809543;79;21322;-73
2020/12/31 07:38:17;;;;;;;24.72;20.95;;;;;;;5.46;84.54;97620.36;1809538;79;20967;-73
2020/12/31 07:40:52;;;;;;;27.10;21.48;;;;;;;5.46;84.61;97621.69;1809214;79;21043;-74
2020/12/31 07:43:27;;;;;;;25.92;21.07;;;;;;;5.46;84.74;97621.69;1809430;79;20972;-74
2020/12/31 07:45:58;;;;;;;27.77;22.05;;;;;;;5.47;84.83;97619.39;1809575;79;20885;-76
2020/12/31 07:48:27;;;;;;;30.80;22.15;;;;;;;5.47;84.81;97615.39;1809586;79;21370;-72
2020/12/31 07:50:57;;;;;;;27.20;20.75;;;;;;;5.49;84.83;97616.17;1813408;79;20924;-72
2020/12/31 07:53:25;;;;;;;27.73;21.48;;;;;;;5.49;84.79;97616.17;1816237;79;20912;-74
2020/12/31 07:55:56;;;;;;;29.90;22.17;;;;;;;5.48;84.78;97607.80;1816188;79;21346;-78
2020/12/31 07:58:25;;;;;;;26.15;22.17;;;;;;;5.47;84.87;97613.61;1816121;79;20896;-70
2020/12/31 08:01:04;;;;;;;22.62;19.95;;;;;;;5.47;84.95;97614.06;1816069;79;21320;-69
2020/12/31 08:03:31;;;;;;;28.42;22.05;;;;;;;5.49;85.03;97613.52;1815718;79;20971;-71
2020/12/31 08:06:03;;;;;;;28.07;21.23;;;;;;;5.49;84.96;97610.85;1815518;78;20936;-70
2020/12/31 08:08:34;;;;;;;28.67;22.85;;;;;;;5.50;85.07;97622.73;1815485;79;20987;-70
2020/12/31 08:11:11;;;;;;;30.48;23.38;;;;;;;5.50;85.21;97616.53;1815512;79;20928;-70
2020/12/31 08:13:38;;;;;;;29.07;22.60;;;;;;;5.52;85.27;97614.17;1815580;79;21426;-70
2020/12/31 08:16:08;;;;;;;27.00;22.13;;;;;;;5.56;85.35;97618.83;1815460;79;20932;-70
2020/12/31 08:18:36;;;;;;;27.95;21.37;;;;;;;5.58;85.21;97611.13;1815517;79;20912;-70
2020/12/31 08:21:04;;;;;;;27.75;21.60;;;;;;;5.59;85.23;97614.64;1786646;79;21329;-70
2020/12/31 08:23:38;;;;;;;23.62;21.02;;;;;;;5.61;85.09;97617.60;1815513;79;20920;-70
2020/12/31 08:26:14;;;;;;;36.35;23.57;;;;;;;5.61;85.06;97620.27;1815656;79;21392;-72
2020/12/31 08:28:47;;;;;;;34.67;26.93;;;;;;;5.64;85.00;97622.35;1815764;79;21420;-70
2020/12/31 08:31:16;;;;;;;26.55;22.17;;;;;;;5.65;85.08;97621.41;1815638;78;21394;-70
2020/12/31 08:33:44;;;;;;;24.82;22.27;;;;;;;5.65;85.10;97627.59;1815485;79;20924;-70
2020/12/31 08:36:21;;;;;;;26.02;22.17;;;;;;;5.66;85.03;97629.31;1815495;79;20991;-71
2020/12/31 08:38:48;;;;;;;21.73;18.82;;;;;;;5.65;84.98;97627.59;1815723;79;22370;-70
2020/12/31 08:41:18;;;;;;;24.20;21.48;;;;;;;5.66;84.91;97634.64;1815584;79;21512;-70
2020/12/31 08:43:45;;;;;;;25.52;21.62;;;;;;;5.65;84.88;97632.91;1786913;79;21302;-71
2020/12/31 08:46:21;;;;;;;26.60;20.68;;;;;;;5.64;84.88;97633.86;1815573;78;20909;-72
2020/12/31 08:48:55;;;;;;;27.10;22.45;;;;;;;5.65;84.97;97628.92;1815688;79;21031;-71
2020/12/31 08:51:29;;;;;;;25.85;21.05;;;;;;;5.64;84.99;97631.19;1803861;79;21355;-70
2020/12/31 08:54:01;;;;;;;22.10;19.82;;;;;;;5.62;85.10;97622.45;1777208;79;20929;-69
2020/12/31 08:56:32;;;;;;;27.60;21.45;;;;;;;;;;1797777;79;20925;-68
2020/12/31 08:59:15;;;;;;;26.93;22.37;;;;;;;5.62;85.23;97614.45;1797921;79;20969;-72
2020/12/31 09:01:48;;;;;;;25.35;21.52;;;;;;;5.63;85.42;97616.63;1798066;79;20862;-72
2020/12/31 09:04:18;;;;;;;25.55;20.52;;;;;;;5.61;85.54;97613.61;1797893;79;22594;-75
2020/12/31 09:06:57;;;;;;;23.95;21.10;;;;;;;5.61;85.54;97605.62;1797919;79;21349;-77
2020/12/31 09:09:27;;;;;;;24.63;20.55;;;;;;;5.62;85.49;97606.46;1797652;79;20985;-76
2020/12/31 09:12:03;;;;;;;27.93;21.42;;;;;;;5.62;85.40;97606.46;1797976;79;21323;-77
2020/12/31 09:14:32;;;;;;;29.60;26.23;;;;;;;5.60;85.53;97607.05;1796577;79;21402;-76
2020/12/31 09:17:00;;;;;;;31.05;24.00;;;;;;;5.57;85.56;97604.08;1797924;79;22264;-76
2020/12/31 09:19:27;;;;;;;28.32;24.32;;;;;;;5.57;85.67;97597.91;1797862;79;20929;-75
2020/12/31 09:21:54;;;;;;;27.20;22.07;;;;;;;5.55;85.76;97598.00;1797862;79;20905;-75
2020/12/31 09:24:23;;;;;;;28.27;21.68;;;;;;;5.55;85.87;97603.78;1797930;79;20998;-76
2020/12/31 09:26:56;;;;;;;27.40;22.22;;;;;;;5.53;86.02;97599.03;1797882;79;21004;-76
2020/12/31 09:29:26;;;;;;;21.23;18.85;;;;;;;5.51;86.05;97607.13;1797445;79;22000;-76
2020/12/31 09:31:53;;;;;;;24.65;19.25;;;;;;;5.51;86.15;97604.94;1797888;79;21533;-75
2020/12/31 09:34:22;;;;;;;22.75;19.32;;;;;;;5.49;86.19;97597.53;1797834;79;20937;-76
2020/12/31 09:36:51;;;;;;;21.95;17.67;;;;;;;5.49;86.30;97593.53;1797915;79;21430;-76
2020/12/31 09:39:19;;;;;;;20.82;18.00;;;;;;;5.47;86.31;97597.63;1776072;79;21346;-76
2020/12/31 09:41:47;;;;;;;22.65;18.17;;;;;;;5.47;86.37;97591.42;1797876;79;21767;-76
2020/12/31 09:44:17;;;;;;;19.80;17.23;;;;;;;5.45;86.44;97588.84;1797866;79;20937;-76
2020/12/31 09:46:45;;;;;;;17.73;15.72;;;;;;;5.47;86.55;97586.97;1797845;79;20901;-76
2020/12/31 09:49:12;;;;;;;21.82;17.42;;;;;;;5.49;86.64;97580.22;1797865;79;20972;-76
2020/12/31 09:51:39;;;;;;;18.40;16.42;;;;;;;5.49;86.73;97582.39;1801880;78;21583;-76
2020/12/31 09:54:07;;;;;;;20.57;17.95;;;;;;;5.50;86.68;97573.92;1804469;79;22067;-75
2020/12/31 09:56:34;;;;;;;18.65;16.67;;;;;;;5.51;86.64;97572.98;1804303;79;20924;-74
2020/12/31 09:59:02;;;;;;;22.25;17.32;;;;;;;5.54;86.56;97569.64;1804483;79;21393;-75
2020/12/31 10:01:29;;;;;;;21.17;17.90;;;;;;;5.54;86.36;97564.31;1804280;79;21407;-76
2020/12/31 10:03:56;;;;;;;21.17;18.07;;;;;;;5.55;86.25;97561.16;1804387;79;20881;-75
2020/12/31 10:06:24;;;;;;;21.02;16.70;;;;;;;5.56;86.12;97562.89;1804310;79;21771;-77
2020/12/31 10:08:52;;;;;;;19.60;16.40;;;;;;;5.55;85.96;97559.83;1804340;79;20940;-77
2020/12/31 10:11:20;;;;;;;18.30;16.40;;;;;;;5.56;85.72;97556.23;1804345;79;21015;-76
2020/12/31 10:13:48;;;;;;;18.17;16.27;;;;;;;5.55;85.60;97551.84;1804376;79;20905;-76
2020/12/31 10:16:16;;;;;;;17.30;14.35;;;;;;;5.53;85.58;97552.42;1804314;79;20893;-77
2020/12/31 10:18:45;;;;;;;18.57;15.93;;;;;;;5.51;85.49;97547.67;1804364;79;21321;-77
2020/12/31 10:21:16;;;;;;;17.02;14.85;;;;;;;5.48;85.52;97543.38;1804382;79;21421;-77
2020/12/31 10:23:43;;;;;;;18.60;16.60;;;;;;;5.47;85.52;97542.15;1804343;79;20976;-75
2020/12/31 10:26:10;;;;;;;17.40;15.53;;;;;;;5.40;85.55;97539.86;1804232;79;20996;-78
2020/12/31 10:28:38;;;;;;;18.35;14.87;;;;;;;5.37;85.74;97534.73;1804469;79;20901;-76
2020/12/31 10:31:06;;;;;;;20.30;16.00;;;;;;;5.35;85.91;97533.98;1804297;79;21358;-77
2020/12/31 10:33:33;;;;;;;17.25;14.53;;;;;;;5.32;85.89;97529.33;1804255;79;21028;-77
2020/12/31 10:36:01;;;;;;;15.20;13.60;;;;;;;5.28;86.11;97528.64;1804280;79;20996;-77
2020/12/31 10:38:29;;;;;;;16.73;13.70;;;;;;;5.28;86.18;97517.14;1804297;79;21008;-77
2020/12/31 10:40:56;;;;;;;19.55;15.13;;;;;;;5.26;86.25;97515.91;1804351;79;20893;-77
2020/12/31 10:43:25;;;;;;;15.93;13.03;;;;;;;5.24;86.51;97508.50;1804100;79;21434;-77
2020/12/31 10:45:53;;;;;;;15.45;13.50;;;;;;;5.22;86.65;97507.75;1804229;79;20969;-77
2020/12/31 10:48:20;;;;;;;15.08;12.98;;;;;;;5.22;86.68;97508.59;1804456;79;21035;-76
2020/12/31 10:50:49;;;;;;;15.98;13.93;;;;;;;5.19;86.73;97499.95;1804266;78;21093;-77
2020/12/31 10:53:16;;;;;;;18.82;14.28;;;;;;;5.19;86.81;97496.80;1804379;79;20928;-77
2020/12/31 10:55:44;;;;;;;17.23;14.00;;;;;;;5.16;86.91;97489.48;1804362;79;21322;-77
2020/12/31 10:58:12;;;;;;;21.45;15.88;;;;;;;5.16;87.18;97489.48;1804294;79;21418;-77
2020/12/31 11:00:39;;;;;;;14.85;12.90;;;;;;;5.16;87.39;97486.83;1804366;79;21007;-77
2020/12/31 11:03:06;;;;;;;20.57;15.95;;;;;;;5.15;87.46;97477.12;1804306;79;20925;-77
2020/12/31 11:05:35;;;;;;;20.10;15.65;;;;;;;5.15;87.59;97471.80;1804274;79;20921;-77
2020/12/31 11:08:02;;;;;;;18.67;15.93;;;;;;;5.14;87.69;97470.07;1804348;79;21087;-77
2020/12/31 11:10:31;;;;;;;20.60;15.95;;;;;;;5.13;87.82;97467.05;1804363;79;20984;-76
2020/12/31 11:13:01;;;;;;;19.60;15.70;;;;;;;5.16;87.79;97465.53;1804435;79;20874;-78
2020/12/31 11:15:28;;;;;;;20.85;16.80;;;;;;;5.15;87.97;97454.00;1804233;79;20932;-76
2020/12/31 11:17:57;;;;;;;17.95;15.08;;;;;;;5.14;88.10;97451.44;1804331;79;20908;-77
2020/12/31 11:20:25;;;;;;;21.60;17.27;;;;;;;5.16;88.12;97452.22;1804369;79;22092;-76
2020/12/31 11:22:52;;;;;;;23.85;17.87;;;;;;;5.16;88.10;97450.89;1804196;79;20921;-77
2020/12/31 11:25:19;;;;;;;22.95;17.10;;;;;;;5.15;88.17;97444.69;1804337;79;21002;-77
2020/12/31 11:27:47;;;;;;;30.52;23.67;;;;;;;5.16;88.11;97443.75;1804296;79;20935;-78
2020/12/31 11:30:14;;;;;;;22.32;18.02;;;;;;;5.13;88.10;97444.42;1804314;79;20909;-78
2020/12/31 11:32:41;;;;;;;18.50;15.90;;;;;;;5.11;88.03;97433.88;1804286;79;21789;-78
2020/12/31 11:35:09;;;;;;;20.35;17.67;;;;;;;5.06;88.05;97442.14;1804277;79;20940;-78
2020/12/31 11:37:36;;;;;;;21.10;18.17;;;;;;;5.05;88.06;97434.25;1804521;79;20870;-78
2020/12/31 11:40:04;;;;;;;25.77;19.70;;;;;;;5.03;87.99;97430.36;1804779;79;21425;-78